Wczytuję dane...
Model: EZM
Gwarancja: 12 miesięcy
Realizacja: 14 dni
Producent: Barani Design
Oblicz ratę

Podstawowa lotniskowa stacja meteorologiczna auto-METAR Barani ezMETAR do małych lotnisk i heliportów AWS. Stacja przeznaczona jest do automatycznego generowania lotniskowych raportów / depesz meteorologicznych METAR i SPECI bazujących na danych z czujników podłączonych do modułu. Rejestrator jest dedykowany do zastosowań na małych lotniskach cywilnych i w heliportach i w tym celu posiada certyfikaty ICAO ANNEX 3 i WMO No. 49 Volume II. Generowane raporty są przekazywane do wskazanej bazy danych nadrzędnego systemu nadzorczego (na serwer administratora) na drodze komunikacji GSM/GPRS. Kompaktowość, niskie zużycie energii i bezprzewodowa komunikacja zapewniają urządzeniu bardzo wysoką elastyczność implementacji. METARlogGSM został również wyposażony w wewnętrzną pamięć, dzięki czemu może on pełnić funkcję autonomicznego rejestratora danych (data loggera). Moduł ten pozwala również na wgląd do szczegółowych danych meteorologicznych zbieranych przez podłączone do niego czujniki.

Niedrogie rozwiązanie AUTO-METAR dla małych lotnisk
Farnborough International Airshow Exhibition 2018

W skład ezMETAR poza niezawodnym, a jednocześnie przystępnym cenowo loggerem METARlogGSM wchodzą certyfikowane do użytku na lotniskach (ICAO Annex 3) czujniki Barani. Sensory te służą do pomiaru podstawowych zmiennych meteorologicznych, tj.

Zarówno rejestrator jak i sensory zabezpieczone są przed przepięciami i negatywnymi efektami tła elektromagnetycznego poprzez moduł Power Protect, dzięki czemu stacja osiąga jeszcze większy poziom niezawodności działania. Stacja ezMETAR umożliwia wtórną rozbudowę systemu pomiarowego składającego się na pełny raport METAR, np. o celiometr.

Przykładowe raporty

METAR (co 30 min) SPECII (przy zmianie warunków)
METAR LZJS 071600Z AUTO CALM //// //// 25/09 Q0977=
METAR LZJS 121140Z AUTO VRB05KT //// //// 06/04 Q0965=
METAR LZJS 121220Z AUTO 22007KT 160V290 //// //// 06/03 Q0964=
...
SPECI LZJS 080925Z AUTO 22012G24KT 160V290 //// //// 07/03 Q0975=
SPECI LZJS 081039Z AUTO 22015G34KT 150V280 //// //// 08/04 Q0975=
...

Dlaczego warto?

  • przeznaczony do zastosowań na małych lotniskach cywilnych i w heliportach
  • wysoka niezawodność działania - ponad 10 lat testów terenowych
  • profesjonalne, certyfikowane (ICAO ANNEX 3) urządzenie w przystępnej cenie
  • raport 5 podstawowych zmiennych pomiarowych: temperatury, wilgotności, wiatru, ciśnienia
  • innowacyjna, helikalna osłona radiacyjna MeteoShield w zestawie
  • ochrona przeciw przepięciami i tłem EMC Power Protect w standardzie
  • niskie zapotrzebowanie na energię niezbędne w przypadku stacji zasilanych autonomicznie
  • wysokiej jakość, precyzyjne przetworniki, w tym kompensowane temperaturowo Pt100
  • dedykowane oprogramowanie do wygodnej konfiguracji i zarządzania danymi
  • tryb konfiguracyjne-serwisowy dostępny poprzez interfejs USB
  • komunikacja bezprzewodowa GPRS/GSM gwarantującą dużą elastyczność lokalizacyjną
  • możliwość bieżącego dostępu do pomiarów poprzez interfejs szeregowy (Modbus RTU)
  • wbudowana pamięć 4 MB - karta SD (FAT32), bazodanowy format danych CSV
  • wbudowany zegar systemowy (RTC) z podtrzymaniem zasilania i synchronizacją on-line

WMO

ICAO

Charakterystyka pomiarowa

zmienna ZAKRES POMIARU DOKŁADNOŚĆ ROZDZIELCZOŚĆ INNE
temperatura -40ºC do +105ºC ±0,2ºC 0,1ºC bezwład.: 5-30 s (63%)
stabil.: pon. 0,02°C/rok
wilgotność 0% do 100% RH ±1,8% RH (@ 25ºC) 0,1% RH bezwład.: 8-30 s
stabil.: pon. 0,25%/rok
ciśnienie atm. do 1500 hPa ±0,3 hPa* 0,01 hPa stabil.: pon. 0,2 hPa/rok
prędkość wiatru do 80 m/s ±1% (@ 0,3 do 50 m/s)* 0,01 m/s próg zadział. 0,3 m/s
kierunek wiatru 360º ±2º * próg zadział. 0,3 m/s
* więcej szczegółów w karcie produktu / instrukcji obsługi

Charakterystyka ogólna

ŚRODOWISKO PRACY -30ºC do +60ºC;
IP65
CZĘSTOTLIWOŚĆ 1 Hz (RS485)
2 kHz (częstotl.)
KOMUNIKACJA RS232, RS485, USB
GPRS/GSM
ZASILANIE 5-12(20) Vdc; 7 mA
(bez transmisji)
OGRZEWANIE n.d. WYMIARY
170 x 140 x 50 mm.
MASA b.d. MATERIAŁY tw. sztuczne OPROGRAMOWANIE EasyLog; 
Easy Modbus Viewer
*opcjonalnie

Dostępne warianty

  • azMETAR - standardowa konfiguracja (wariant domyślny)

Sugerowane zastosowania

  • małe lotniska cywilne i heliporty- stacja pogody (AWS)

Zawartość zestawu

  • stacja meteorologiczna GPRS/GSM (AWS)
przykład METAR przykład dane Karta produktu
Pobierz Pobierz Pobierz